Time;durP1;ratioP1;P1;durP2;ratioP2;P2;SDS_P1;SDS_P2;PMS_P1;PMS_P2;Temp;Humidity;BMP_temperature;BMP_pressure;BME280_temperature;BME280_humidity;BME280_pressure;Samples;Min_cycle;Max_cycle;Signal;HPM_P1;HPM_P2
2020/12/21 00:01:19;;;;;;;24.45;16.83;;;;;;;5.31;97.26;99590.28;4938556;29;20388;-69
2020/12/21 00:03:45;;;;;;;24.75;17.15;;;;;;;5.27;97.31;99593.66;4955502;29;20512;-70
2020/12/21 00:06:12;;;;;;;28.13;17.23;;;;;;;5.26;97.54;99602.19;4955697;28;20122;-70
2020/12/21 00:08:38;;;;;;;26.80;18.17;;;;;;;5.24;97.11;99598.72;4955697;29;20436;-70
2020/12/21 00:11:03;;;;;;;23.77;16.92;;;;;;;5.23;97.36;99591.88;4955594;29;20081;-70
2020/12/21 00:13:28;;;;;;;26.38;16.67;;;;;;;5.22;97.60;99595.28;4954158;29;20406;-70
2020/12/21 00:15:54;;;;;;;27.23;17.10;;;;;;;5.22;97.27;99591.81;4938296;28;20073;-70
2020/12/21 00:18:19;;;;;;;27.70;18.00;;;;;;;5.24;97.50;99593.59;4955442;29;20023;-70
2020/12/21 00:20:45;;;;;;;29.75;16.52;;;;;;;5.26;97.34;99599.63;4955276;29;20027;-70
2020/12/21 00:23:10;;;;;;;26.67;17.98;;;;;;;5.27;97.28;99598.81;4955335;29;20031;-70
2020/12/21 00:25:35;;;;;;;26.73;17.10;;;;;;;5.31;97.02;99600.56;4938005;28;20034;-70
2020/12/21 00:28:01;;;;;;;26.95;17.85;;;;;;;5.21;96.91;99593.53;4955493;29;20026;-68
2020/12/21 00:30:26;;;;;;;26.55;17.55;;;;;;;5.24;97.09;99593.59;4955401;29;20555;-69
2020/12/21 00:32:51;;;;;;;26.58;17.42;;;;;;;5.26;97.15;99591.91;4955404;29;20031;-68
2020/12/21 00:35:16;;;;;;;25.60;17.80;;;;;;;5.24;97.29;99592.72;4955162;29;20063;-69
2020/12/21 00:37:42;;;;;;;24.20;16.67;;;;;;;5.22;97.05;99595.28;4955118;28;20062;-69
2020/12/21 00:40:07;;;;;;;27.63;18.55;;;;;;;5.25;97.18;99590.19;4955130;29;20020;-68
2020/12/21 00:42:32;;;;;;;27.67;17.45;;;;;;;5.28;97.07;99592.81;4937785;29;20029;-69
2020/12/21 00:44:58;;;;;;;27.05;17.67;;;;;;;5.25;97.28;99600.47;4954954;29;20038;-69
2020/12/21 00:47:23;;;;;;;27.27;17.50;;;;;;;5.29;97.13;99599.66;4954861;28;20063;-69
2020/12/21 00:49:48;;;;;;;29.95;17.80;;;;;;;5.20;97.31;99596.94;4954749;29;20027;-68
2020/12/21 00:52:14;;;;;;;23.98;17.20;;;;;;;5.19;97.44;99600.38;4954758;29;20038;-69
2020/12/21 00:54:39;;;;;;;24.90;17.88;;;;;;;5.20;97.56;99596.94;4954738;29;20050;-69
2020/12/21 00:57:04;;;;;;;28.42;17.85;;;;;;;5.19;97.63;99600.38;4954781;28;20421;-70
2020/12/21 00:59:30;;;;;;;24.88;16.75;;;;;;;5.29;97.65;99591.97;4953763;28;20135;-70
2020/12/21 07:02:33;;;;;;;43.67;21.02;;;;;;;2.88;100.00;99576.66;5022364;23;20054;-71
2020/12/21 07:05:07;;;;;;;34.42;21.33;;;;;;;2.89;100.00;99570.69;4956877;29;20039;-71
2020/12/21 07:07:33;;;;;;;71.97;24.42;;;;;;;2.84;100.00;99571.44;4956611;29;20023;-71
2020/12/21 07:09:58;;;;;;;46.25;23.77;;;;;;;2.90;100.00;99559.63;4956749;29;20377;-71
2020/12/21 07:12:23;;;;;;;51.17;24.42;;;;;;;2.90;100.00;99559.63;4956388;28;20684;-71
2020/12/21 07:14:49;;;;;;;50.97;26.73;;;;;;;2.87;100.00;99559.56;4956575;29;20522;-71
2020/12/21 07:17:15;;;;;;;41.78;23.88;;;;;;;2.83;100.00;99554.38;4997122;23;20051;-72
2020/12/21 07:19:42;;;;;;;42.90;23.90;;;;;;;2.83;100.00;99553.50;4956489;29;20094;-72
2020/12/21 07:22:09;;;;;;;37.70;22.58;;;;;;;2.83;100.00;99546.69;4956213;29;20035;-72
2020/12/21 07:24:36;;;;;;;38.42;23.23;;;;;;;2.83;100.00;99539.00;4956566;29;20361;-73
2020/12/21 07:27:02;;;;;;;38.95;23.33;;;;;;;2.80;100.00;99548.28;4956243;28;20030;-75
2020/12/21 07:29:39;;;;;;;31.90;21.73;;;;;;;2.79;100.00;99542.31;4956339;29;20019;-75
2020/12/21 07:32:06;;;;;;;34.33;20.33;;;;;;;2.82;100.00;99539.84;4956178;29;20034;-75
2020/12/21 07:34:31;;;;;;;48.05;22.65;;;;;;;2.82;100.00;99536.41;4956234;29;20027;-75
2020/12/21 07:36:57;;;;;;;42.08;22.63;;;;;;;2.79;100.00;99542.31;4956093;28;20019;-75
2020/12/21 07:39:23;;;;;;;42.90;23.63;;;;;;;2.74;100.00;99536.22;4956089;29;20455;-75
2020/12/21 07:41:53;;;;;;;47.28;23.77;;;;;;;2.78;100.00;99529.50;4956024;29;20027;-75
2020/12/21 07:44:26;;;;;;;;;;;;;;;2.76;100.00;99542.25;4956482;29;20073;-75
2020/12/21 07:47:00;;;;;;;48.30;23.85;;;;;;;2.73;100.00;99547.28;4955878;28;19918;-75
2020/12/21 07:49:26;;;;;;;42.95;24.30;;;;;;;2.80;100.00;99538.94;4955964;29;20154;-75
2020/12/21 07:51:58;;;;;;;38.10;22.98;;;;;;;2.83;100.00;99554.38;4955864;29;20224;-75
2020/12/21 07:54:25;;;;;;;42.58;23.85;;;;;;;2.87;100.00;99559.56;4955712;29;20361;-75
2020/12/21 07:57:04;;;;;;;36.72;22.48;;;;;;;2.88;100.00;99557.03;4955986;28;20023;-75
2020/12/21 07:59:30;;;;;;;35.42;21.30;;;;;;;2.97;100.00;99556.41;4955787;29;20027;-73
2020/12/21 08:01:59;;;;;;;39.05;23.80;;;;;;;3.02;100.00;99554.81;4955646;29;20023;-73
2020/12/21 08:04:26;;;;;;;39.92;24.27;;;;;;;2.99;100.00;99552.19;4955646;29;20362;-73
2020/12/21 08:06:52;;;;;;;37.72;23.08;;;;;;;3.04;99.91;99542.91;4937679;29;20048;-73
2020/12/21 08:09:18;;;;;;;35.38;22.27;;;;;;;3.15;99.81;99536.38;4936124;29;20027;-73
2020/12/21 08:11:44;;;;;;;34.47;21.63;;;;;;;3.09;99.58;99536.22;4936318;29;20030;-73
2020/12/21 08:14:16;;;;;;;33.47;20.95;;;;;;;3.16;99.15;99532.13;4936322;29;20024;-73
2020/12/21 08:16:41;;;;;;;31.73;20.05;;;;;;;3.19;98.52;99533.06;4936409;29;20441;-73
2020/12/21 08:19:10;;;;;;;30.70;19.95;;;;;;;3.24;98.53;99531.47;4936246;29;20028;-73
2020/12/21 08:21:35;;;;;;;30.30;18.80;;;;;;;3.21;98.54;99531.41;4936148;29;20107;-73
2020/12/21 08:24:01;;;;;;;30.08;19.58;;;;;;;3.22;98.63;99532.25;4936105;29;20070;-74
2020/12/21 08:26:26;;;;;;;32.08;19.55;;;;;;;3.15;98.77;99535.53;4936082;29;20024;-74
2020/12/21 08:28:54;;;;;;;32.05;19.60;;;;;;;3.04;98.88;99533.53;4936038;29;20047;-74
2020/12/21 08:31:21;;;;;;;29.25;19.40;;;;;;;3.05;99.12;99529.31;4936003;29;20393;-74
2020/12/21 08:34:05;;;;;;;26.85;18.83;;;;;;;3.08;98.86;99532.78;4935952;29;20031;-74
2020/12/21 08:36:35;;;;;;;26.17;18.17;;;;;;;3.16;98.60;99538.09;4936236;29;20470;-74
2020/12/21 08:39:08;;;;;;;;;;;;;;;3.10;98.39;99540.53;4932509;29;20040;-74
2020/12/21 08:41:55;;;;;;;29.25;18.65;;;;;;;3.15;98.36;99541.50;4934487;29;19969;-71
2020/12/21 08:44:20;;;;;;;27.10;16.80;;;;;;;3.34;98.40;99547.94;4932799;29;20028;-71
2020/12/21 08:46:56;;;;;;;23.45;16.42;;;;;;;3.45;97.39;99550.72;4922851;29;20025;-72
2020/12/21 08:49:22;;;;;;;26.35;15.80;;;;;;;3.41;97.39;99554.03;4917734;29;20035;-71
2020/12/21 08:51:49;;;;;;;24.52;16.05;;;;;;;3.38;97.02;99559.09;4916135;29;20028;-72
2020/12/21 08:54:15;;;;;;;22.08;15.27;;;;;;;3.55;96.73;99557.78;4916358;29;20396;-74
2020/12/21 08:56:45;;;;;;;25.63;15.13;;;;;;;3.79;96.37;99568.59;4931935;29;20024;-74
2020/12/21 08:59:10;;;;;;;24.05;15.82;;;;;;;3.93;95.75;99570.59;4916673;29;20424;-74
2020/12/21 09:01:39;;;;;;;20.92;15.40;;;;;;;3.64;95.50;99568.25;4916015;29;20024;-74
2020/12/21 09:04:05;;;;;;;22.87;14.97;;;;;;;3.75;95.63;99561.66;4929500;29;20042;-74
2020/12/21 09:06:30;;;;;;;24.17;14.93;;;;;;;3.69;95.58;99566.66;4919320;29;20545;-74
2020/12/21 09:08:56;;;;;;;23.45;16.40;;;;;;;3.63;95.63;99569.09;4931190;29;20072;-74
2020/12/21 09:11:21;;;;;;;23.30;15.77;;;;;;;3.66;95.99;99568.28;4923256;29;20082;-74
2020/12/21 09:13:47;;;;;;;20.85;15.43;;;;;;;3.83;96.15;99570.38;4922479;29;20523;-74
2020/12/21 09:16:17;;;;;;;24.70;15.68;;;;;;;3.88;95.59;99567.06;4933749;29;20039;-74
2020/12/21 09:18:42;;;;;;;23.83;15.40;;;;;;;3.87;95.48;99576.44;4919387;29;20039;-73
2020/12/21 09:21:07;;;;;;;22.65;14.82;;;;;;;4.07;95.61;99575.16;4934148;29;20031;-74
2020/12/21 09:23:33;;;;;;;19.40;14.07;;;;;;;4.08;95.08;99576.03;4926016;29;20091;-74
2020/12/21 09:25:58;;;;;;;16.83;12.75;;;;;;;4.03;95.37;99557.13;4915866;29;20106;-73
2020/12/21 09:28:24;;;;;;;18.60;13.48;;;;;;;4.12;95.21;99557.31;4931481;29;20035;-74
2020/12/21 09:30:49;;;;;;;23.80;14.70;;;;;;;4.16;95.35;99553.97;4917579;29;20016;-74
2020/12/21 09:33:14;;;;;;;22.38;14.88;;;;;;;4.15;94.90;99552.22;4928094;29;20168;-70
2020/12/21 09:35:40;;;;;;;21.13;14.77;;;;;;;4.30;94.80;99551.66;4924665;29;20047;-74
2020/12/21 09:38:05;;;;;;;20.25;15.10;;;;;;;4.50;94.77;99549.50;4926587;29;20019;-74
2020/12/21 09:40:30;;;;;;;24.80;14.85;;;;;;;4.42;93.40;99556.19;4931976;29;20032;-74
2020/12/21 09:42:56;;;;;;;19.60;13.02;;;;;;;4.57;93.42;99548.75;4934719;29;20035;-74
2020/12/21 09:45:21;;;;;;;23.02;14.02;;;;;;;4.51;93.55;99557.22;4934814;29;20099;-74
2020/12/21 09:47:47;;;;;;;29.63;16.80;;;;;;;4.55;92.84;99547.88;4934680;29;20319;-73
2020/12/21 09:50:12;;;;;;;28.17;15.45;;;;;;;4.44;93.49;99534.84;4934452;29;20477;-74
2020/12/21 09:52:38;;;;;;;19.42;13.65;;;;;;;4.58;93.15;99542.78;4934425;29;20066;-74
2020/12/21 09:55:03;;;;;;;19.55;13.48;;;;;;;4.64;93.48;99532.63;4931248;29;20019;-72
2020/12/21 09:57:29;;;;;;;18.83;13.25;;;;;;;4.73;93.22;99532.78;4926250;29;20157;-72
2020/12/21 09:59:54;;;;;;;17.63;12.15;;;;;;;4.62;92.48;99526.63;4915415;29;20035;-72
2020/12/21 10:02:19;;;;;;;21.98;14.20;;;;;;;4.64;93.41;99530.06;4924548;29;20047;-73
2020/12/21 10:04:45;;;;;;;23.08;14.32;;;;;;;4.69;92.86;99525.91;4916426;29;20032;-74
2020/12/21 10:07:10;;;;;;;18.55;13.40;;;;;;;4.71;91.98;99528.50;4932282;29;20480;-71
2020/12/21 10:09:36;;;;;;;24.77;13.45;;;;;;;4.74;91.51;99529.41;4915180;29;20541;-73
2020/12/21 10:12:01;;;;;;;19.13;12.45;;;;;;;4.82;92.25;99522.69;4914970;29;20106;-73
2020/12/21 10:14:27;;;;;;;16.65;12.40;;;;;;;4.83;91.85;99514.13;4927685;29;20027;-74
2020/12/21 10:16:53;;;;;;;21.08;12.57;;;;;;;4.90;92.02;99516.00;4933953;29;20031;-74
2020/12/21 10:19:19;;;;;;;16.45;13.05;;;;;;;4.93;92.24;99514.28;4934247;29;20055;-74
2020/12/21 10:21:44;;;;;;;19.35;12.80;;;;;;;5.01;92.15;99507.59;4933797;29;20057;-74
2020/12/21 10:24:09;;;;;;;19.00;13.10;;;;;;;4.92;92.37;99502.31;4933982;29;20084;-74
2020/12/21 10:26:39;;;;;;;17.08;12.90;;;;;;;5.07;92.24;99498.28;4934007;29;20054;-74
2020/12/21 10:29:04;;;;;;;21.75;12.52;;;;;;;5.18;91.58;99501.03;4933967;29;20102;-74
2020/12/21 10:31:29;;;;;;;17.67;12.63;;;;;;;4.98;91.62;99502.41;4933512;29;20126;-74
2020/12/21 10:33:55;;;;;;;17.50;13.27;;;;;;;4.97;91.78;99490.41;4933724;29;20028;-73
2020/12/21 10:36:20;;;;;;;20.67;14.13;;;;;;;4.99;91.65;99483.59;4933732;29;20102;-73
2020/12/21 10:38:47;;;;;;;19.02;13.40;;;;;;;4.87;92.23;99487.69;4933684;29;20070;-73
2020/12/21 10:41:12;;;;;;;18.80;13.77;;;;;;;5.00;92.74;99481.06;4933733;29;20059;-73
2020/12/21 10:43:37;;;;;;;19.15;13.80;;;;;;;4.79;92.77;99481.59;4916623;29;20051;-73
2020/12/21 10:46:03;;;;;;;20.50;12.82;;;;;;;4.88;92.40;99476.59;4933743;29;20048;-73
2020/12/21 10:48:28;;;;;;;19.90;13.32;;;;;;;4.83;92.66;99473.06;4933752;29;20516;-73
2020/12/21 10:50:54;;;;;;;16.77;12.88;;;;;;;4.87;92.69;99459.44;4933352;29;20036;-73
2020/12/21 10:53:20;;;;;;;19.83;13.05;;;;;;;4.92;92.60;99453.53;4924092;29;20032;-73
2020/12/21 10:55:46;;;;;;;21.88;14.13;;;;;;;5.08;92.99;99452.94;4923829;29;20183;-73
2020/12/21 10:58:11;;;;;;;17.45;12.43;;;;;;;5.16;92.00;99446.19;4933781;29;20035;-73
2020/12/21 11:00:36;;;;;;;23.45;14.20;;;;;;;5.28;91.95;99455.78;4933838;29;20548;-73
2020/12/21 11:03:02;;;;;;;21.15;13.80;;;;;;;5.37;91.63;99451.63;4933635;29;20122;-73
2020/12/21 11:05:28;;;;;;;18.73;13.48;;;;;;;5.22;91.56;99459.13;4933562;29;20090;-73
2020/12/21 11:07:54;;;;;;;22.40;13.70;;;;;;;5.25;91.65;99456.59;4933651;29;20047;-73
2020/12/21 11:10:19;;;;;;;19.83;13.25;;;;;;;5.29;91.52;99458.38;4933639;29;20441;-74
2020/12/21 11:12:44;;;;;;;18.95;12.43;;;;;;;5.28;91.46;99450.66;4933473;29;20031;-73
2020/12/21 11:15:09;;;;;;;18.45;12.05;;;;;;;5.27;91.71;99449.78;4933813;29;20039;-75
2020/12/21 11:17:35;;;;;;;17.55;12.90;;;;;;;5.21;91.85;99452.25;4933386;29;20067;-76
2020/12/21 11:20:00;;;;;;;21.70;14.85;;;;;;;5.26;92.22;99450.59;4933456;29;20050;-76
2020/12/21 11:22:25;;;;;;;19.52;13.93;;;;;;;5.45;92.27;99444.00;4933625;29;20507;-75
2020/12/21 11:24:51;;;;;;;19.42;13.35;;;;;;;5.34;91.57;99451.59;4933481;29;20397;-75
2020/12/21 11:27:17;;;;;;;21.42;14.10;;;;;;;5.48;91.88;99454.34;4933287;29;20028;-75
2020/12/21 11:29:43;;;;;;;22.00;13.70;;;;;;;5.66;91.00;99448.59;4933418;29;20569;-75
2020/12/21 11:32:08;;;;;;;21.50;14.55;;;;;;;5.71;91.72;99448.66;4933121;29;20028;-75
2020/12/21 11:34:33;;;;;;;19.58;13.57;;;;;;;5.73;90.56;99450.38;4923095;29;20060;-75
2020/12/21 11:36:58;;;;;;;27.65;17.40;;;;;;;5.90;90.72;99453.16;4914308;29;20079;-73
2020/12/21 11:39:24;;;;;;;26.30;15.27;;;;;;;5.99;89.79;99450.69;4914246;29;20083;-73
2020/12/21 11:41:49;;;;;;;19.65;13.27;;;;;;;6.12;89.67;99455.13;4914241;29;20103;-73
2020/12/21 11:44:14;;;;;;;21.88;12.75;;;;;;;6.06;89.72;99454.22;4916413;29;20028;-73
2020/12/21 11:46:40;;;;;;;16.92;12.57;;;;;;;5.78;90.28;99448.72;4917931;29;20024;-73
2020/12/21 11:49:06;;;;;;;22.95;15.20;;;;;;;5.81;91.31;99443.63;4917773;29;20028;-73
2020/12/21 11:51:31;;;;;;;18.60;14.90;;;;;;;5.84;91.22;99446.22;4917325;29;20442;-73
2020/12/21 11:53:56;;;;;;;16.00;13.48;;;;;;;5.90;91.21;99442.88;4917334;29;20028;-73
2020/12/21 11:56:22;;;;;;;18.92;13.77;;;;;;;5.80;91.60;99447.06;4916483;29;20442;-72
2020/12/21 11:58:48;;;;;;;20.75;13.95;;;;;;;5.80;91.35;99441.00;4917872;29;20042;-71
2020/12/21 12:01:19;;;;;;;17.38;13.18;;;;;;;5.97;90.98;99438.69;4917508;29;20032;-71
2020/12/21 12:03:45;;;;;;;19.45;12.75;;;;;;;5.84;91.13;99435.94;4917627;29;20027;-73
2020/12/21 12:06:11;;;;;;;20.55;13.93;;;;;;;5.91;90.95;99440.34;4917238;29;20099;-72
2020/12/21 12:08:36;;;;;;;21.50;12.98;;;;;;;5.88;91.04;99427.41;4917479;29;20028;-72
2020/12/21 12:11:02;;;;;;;16.55;11.73;;;;;;;6.10;90.58;99422.53;4917154;29;20024;-72
2020/12/21 12:13:27;;;;;;;19.60;12.00;;;;;;;6.13;90.44;99422.56;4917495;29;20030;-72
2020/12/21 12:15:53;;;;;;;17.92;12.65;;;;;;;6.00;90.71;99418.16;4917177;29;20114;-72
2020/12/21 12:18:18;;;;;;;19.65;13.18;;;;;;;6.13;90.94;99404.53;4917303;29;20028;-72
2020/12/21 12:20:43;;;;;;;22.98;13.93;;;;;;;6.08;90.48;99395.91;4917052;29;20035;-72
2020/12/21 12:23:09;;;;;;;22.85;14.05;;;;;;;6.26;90.83;99395.25;4917376;29;20032;-72
2020/12/21 12:25:34;;;;;;;20.80;13.43;;;;;;;6.42;nan;99400.53;4917211;29;20381;-73
2020/12/21 12:28:00;;;;;;;17.95;13.25;;;;;;;6.63;90.22;99391.28;4916988;29;20071;-74
2020/12/21 12:30:25;;;;;;;20.50;13.18;;;;;;;6.73;89.63;99387.06;4917316;29;20028;-72
2020/12/21 12:32:51;;;;;;;19.17;13.48;;;;;;;6.92;89.81;99384.63;4916939;29;20486;-72
2020/12/21 12:35:16;;;;;;;17.73;13.02;;;;;;;6.90;89.59;99388.03;4916885;29;20093;-72
2020/12/21 12:37:41;;;;;;;22.00;14.70;;;;;;;6.91;89.21;99387.16;4916845;29;20037;-72
2020/12/21 12:40:07;;;;;;;23.52;14.30;;;;;;;6.84;89.34;99391.41;4916922;29;20028;-73
2020/12/21 12:42:33;;;;;;;17.80;13.50;;;;;;;6.64;89.50;99387.84;4916721;29;20028;-73
2020/12/21 12:44:59;;;;;;;21.70;12.93;;;;;;;6.68;89.38;99384.44;4916811;29;20054;-73
2020/12/21 12:47:24;;;;;;;26.33;13.50;;;;;;;6.78;89.73;99375.94;4916543;29;20541;-73
2020/12/21 12:49:49;;;;;;;22.15;13.48;;;;;;;6.98;89.18;99377.78;4916707;29;20047;-73
2020/12/21 12:52:15;;;;;;;22.75;13.48;;;;;;;7.08;88.61;99379.56;4916931;29;20083;-73
2020/12/21 12:54:40;;;;;;;18.48;13.00;;;;;;;7.02;89.30;99369.22;4915574;29;20027;-73
2020/12/21 12:57:05;;;;;;;21.60;15.23;;;;;;;7.06;89.19;99361.53;4916376;29;20021;-73
2020/12/21 12:59:31;;;;;;;23.10;12.27;;;;;;;7.13;88.46;99350.38;4916691;29;20036;-72
2020/12/21 13:01:56;;;;;;;14.65;8.85;;;;;;;7.24;87.37;99355.56;4899395;29;20032;-73
2020/12/21 13:04:21;;;;;;;12.77;8.05;;;;;;;7.39;86.23;99340.16;4916307;29;20063;-73
2020/12/21 13:06:47;;;;;;;9.32;5.72;;;;;;;7.58;84.67;99329.94;4916270;29;20032;-75
2020/12/21 13:09:12;;;;;;;9.45;5.93;;;;;;;7.85;83.88;99313.66;4916539;29;20036;-75
2020/12/21 13:11:37;;;;;;;7.40;5.75;;;;;;;7.92;83.94;99299.91;4916000;29;20514;-75
2020/12/21 13:14:03;;;;;;;10.73;4.63;;;;;;;7.96;83.01;99297.31;4916335;29;20122;-75
2020/12/21 13:16:28;;;;;;;10.07;4.00;;;;;;;8.10;82.59;99293.91;4945274;23;20068;-72
2020/12/21 13:18:53;;;;;;;8.00;3.85;;;;;;;7.97;81.76;99283.56;4935311;29;20159;-72
2020/12/21 13:21:22;;;;;;;7.90;3.83;;;;;;;7.95;81.58;99266.38;4923695;29;20031;-73
2020/12/21 13:23:48;;;;;;;5.00;3.83;;;;;;;7.84;82.36;99250.91;4934891;29;20059;-73
2020/12/21 13:26:18;;;;;;;7.38;3.78;;;;;;;7.71;81.51;99242.28;4929114;29;20071;-72
2020/12/21 13:28:45;;;;;;;5.38;4.20;;;;;;;7.64;82.98;99222.50;4916138;29;20034;-72
2020/12/21 13:31:10;;;;;;;15.23;8.88;;;;;;;7.46;85.33;99223.34;4908670;29;20549;-72
2020/12/21 13:33:36;;;;;;;15.10;9.40;;;;;;;7.41;86.35;99216.47;4900007;29;20024;-72
2020/12/21 13:36:01;;;;;;;12.40;7.88;;;;;;;7.34;86.04;99212.13;4915883;29;20024;-72
2020/12/21 13:38:27;;;;;;;14.18;6.93;;;;;;;7.30;85.60;99216.44;4916169;29;20446;-72
2020/12/21 13:40:52;;;;;;;15.93;6.43;;;;;;;7.24;85.38;99208.69;4916374;29;20043;-71
2020/12/21 13:43:17;;;;;;;8.20;5.63;;;;;;;7.21;84.40;99219.00;4916068;29;20437;-72
2020/12/21 13:45:43;;;;;;;10.18;5.38;;;;;;;7.11;85.43;99215.53;4915950;29;20020;-72
2020/12/21 13:48:08;;;;;;;9.38;5.53;;;;;;;7.04;85.82;99212.91;4915716;29;20035;-72
2020/12/21 13:50:33;;;;;;;9.45;6.85;;;;;;;7.00;86.49;99208.59;4898985;29;20020;-72
2020/12/21 13:52:59;;;;;;;13.95;9.02;;;;;;;6.89;87.51;99200.84;4898709;29;20326;-73
2020/12/21 13:55:24;;;;;;;13.18;8.85;;;;;;;6.85;88.23;99206.84;4915716;29;20071;-72
2020/12/21 13:57:49;;;;;;;16.35;9.27;;;;;;;6.86;88.61;99208.56;4914446;29;20024;-72
2020/12/21 14:00:15;;;;;;;14.65;8.98;;;;;;;6.84;88.97;99205.13;4915629;29;20401;-72
2020/12/21 14:02:40;;;;;;;12.98;8.57;;;;;;;6.88;88.91;99201.72;4915125;29;20470;-71
2020/12/21 14:05:05;;;;;;;14.98;9.35;;;;;;;6.88;88.86;99201.72;4915364;29;20605;-71
2020/12/21 14:07:32;;;;;;;14.55;9.60;;;;;;;6.92;88.46;99208.59;4914971;29;20032;-72
2020/12/21 14:09:57;;;;;;;11.57;8.15;;;;;;;6.99;88.40;99196.59;4915324;29;20031;-72
2020/12/21 14:12:22;;;;;;;19.27;9.15;;;;;;;6.99;88.61;99199.16;4915329;29;20470;-72
2020/12/21 14:14:48;;;;;;;12.15;9.15;;;;;;;7.01;88.64;99200.00;4915335;29;20028;-71
2020/12/21 14:17:13;;;;;;;13.98;8.95;;;;;;;6.96;88.55;99210.31;4915150;29;20036;-72
2020/12/21 14:19:38;;;;;;;15.35;9.63;;;;;;;6.91;88.77;99210.31;4915266;29;20043;-72
2020/12/21 14:22:04;;;;;;;16.58;9.52;;;;;;;6.99;88.83;99214.63;4914907;29;20119;-72
2020/12/21 14:24:29;;;;;;;13.43;10.15;;;;;;;6.92;89.06;99204.31;4915213;29;20107;-71
2020/12/21 14:26:55;;;;;;;18.42;11.25;;;;;;;6.94;89.10;99200.00;4914878;29;20032;-72
2020/12/21 14:29:20;;;;;;;16.17;11.27;;;;;;;6.93;89.08;99208.59;4915424;29;20036;-72
2020/12/21 14:31:46;;;;;;;21.25;11.13;;;;;;;6.97;89.66;99208.63;4914764;29;20032;-71
2020/12/21 14:34:11;;;;;;;21.38;12.90;;;;;;;6.98;89.77;99202.59;4914997;29;20024;-72
2020/12/21 14:36:37;;;;;;;20.50;12.95;;;;;;;6.94;89.63;99197.44;4915095;29;20035;-72
2020/12/21 14:39:07;;;;;;;19.52;12.27;;;;;;;6.95;90.34;99204.28;4915312;29;20616;-73
2020/12/21 14:41:40;;;;;;;19.20;12.57;;;;;;;6.88;89.98;99197.41;4914894;29;20458;-73
2020/12/21 14:44:06;;;;;;;18.20;12.18;;;;;;;6.99;90.19;99199.16;4919636;29;20059;-71
2020/12/21 14:46:31;;;;;;;20.67;11.80;;;;;;;6.91;90.02;99182.00;4914542;29;20060;-72
2020/12/21 14:48:56;;;;;;;17.73;12.38;;;;;;;6.88;90.14;99166.50;4916548;29;20111;-72
2020/12/21 14:51:22;;;;;;;24.58;12.05;;;;;;;6.98;89.02;99163.97;4922347;29;20032;-72
2020/12/21 14:54:08;;;;;;;22.13;12.75;;;;;;;6.94;89.79;99158.78;4917836;29;20024;-72
2020/12/21 14:56:34;;;;;;;24.02;13.55;;;;;;;7.00;89.54;99159.66;4918381;29;20486;-71
2020/12/21 14:59:01;;;;;;;22.92;13.23;;;;;;;7.07;89.31;99166.56;4927085;29;20098;-72
2020/12/21 15:01:27;;;;;;;19.95;10.75;;;;;;;7.19;87.79;99170.00;4917609;29;20032;-71
2020/12/21 15:03:53;;;;;;;19.30;9.80;;;;;;;7.19;87.65;99171.72;4929715;29;20541;-72
2020/12/21 15:06:18;;;;;;;14.52;9.27;;;;;;;7.30;86.12;99167.47;4921597;29;20035;-71
2020/12/21 15:08:43;;;;;;;16.40;8.52;;;;;;;7.32;85.98;99170.91;4923307;29;20035;-71
2020/12/21 15:11:12;;;;;;;7.10;4.95;;;;;;;7.68;82.76;99171.78;4914580;29;20552;-71
2020/12/21 15:13:38;;;;;;;5.65;4.50;;;;;;;7.80;81.27;99170.94;4916266;29;20035;-71
2020/12/21 15:16:08;;;;;;;5.18;3.97;;;;;;;7.83;81.10;99170.91;4927985;29;20028;-71
2020/12/21 15:18:35;;;;;;;14.30;7.03;;;;;;;7.82;82.14;99159.72;4924766;29;20027;-70
2020/12/21 15:21:02;;;;;;;13.90;9.05;;;;;;;7.82;84.03;99164.03;4924551;29;20397;-70
2020/12/21 15:23:28;;;;;;;15.02;10.02;;;;;;;7.50;85.73;99171.78;4933993;29;20433;-71
2020/12/21 15:25:53;;;;;;;15.50;9.80;;;;;;;7.37;86.57;99165.75;4922077;29;20027;-70
2020/12/21 15:28:19;;;;;;;21.55;11.57;;;;;;;7.28;87.49;99158.88;4929930;29;20441;-71
2020/12/21 15:30:45;;;;;;;19.70;11.07;;;;;;;7.28;87.84;99156.28;4928567;29;20086;-71
2020/12/21 15:33:10;;;;;;;25.08;11.85;;;;;;;7.16;88.19;99156.28;4923164;29;20035;-71
2020/12/21 15:35:35;;;;;;;14.70;9.63;;;;;;;7.19;87.62;99161.41;4919489;29;20035;-71
2020/12/21 15:38:01;;;;;;;14.35;9.02;;;;;;;7.18;87.50;99154.56;4932119;29;20016;-70
2020/12/21 15:40:26;;;;;;;16.27;10.75;;;;;;;7.23;87.45;99145.09;4919859;29;20436;-71
2020/12/21 15:42:53;;;;;;;16.23;9.50;;;;;;;7.29;86.28;99142.53;4920407;29;20032;-71
2020/12/21 15:45:18;;;;;;;12.70;7.70;;;;;;;7.39;85.52;99143.41;4932748;29;20163;-71
2020/12/21 15:47:44;;;;;;;13.40;8.18;;;;;;;7.36;85.78;99144.28;4918945;29;20114;-71
2020/12/21 15:50:09;;;;;;;11.07;7.40;;;;;;;7.41;84.87;99142.56;4936764;29;20110;-71
2020/12/21 15:52:34;;;;;;;7.65;5.75;;;;;;;7.59;83.03;99140.81;4927231;29;20028;-72
2020/12/21 15:55:00;;;;;;;8.35;5.57;;;;;;;7.64;83.07;99128.78;4930174;29;20027;-71
2020/12/21 15:57:27;;;;;;;9.65;6.18;;;;;;;7.62;83.01;99130.53;4920409;29;20513;-71
2020/12/21 15:59:52;;;;;;;11.40;6.68;;;;;;;7.65;82.81;99120.22;4932711;29;20066;-70
2020/12/21 16:02:18;;;;;;;7.55;4.60;;;;;;;7.73;81.13;99121.03;4924664;29;20107;-70
2020/12/21 16:04:43;;;;;;;8.18;4.63;;;;;;;7.78;81.06;99111.56;4926115;29;20036;-70
2020/12/21 16:07:10;;;;;;;5.95;4.18;;;;;;;7.85;80.48;99108.16;4931090;29;20032;-71
2020/12/21 16:09:35;;;;;;;5.63;4.00;;;;;;;7.78;81.14;99098.69;4920485;29;20027;-71
2020/12/21 16:12:01;;;;;;;7.15;3.58;;;;;;;7.77;81.18;99104.72;4931316;29;20048;-71
2020/12/21 16:14:26;;;;;;;4.18;3.42;;;;;;;7.87;79.26;99101.25;4925426;29;20309;-71
2020/12/21 16:16:51;;;;;;;5.63;3.72;;;;;;;7.91;79.14;99105.53;4924735;29;20035;-71
2020/12/21 16:19:17;;;;;;;5.07;3.45;;;;;;;7.90;79.62;99103.84;4931821;29;20103;-71
2020/12/21 16:21:42;;;;;;;7.60;3.83;;;;;;;7.96;78.60;99105.53;4920192;29;20059;-68
2020/12/21 16:24:07;;;;;;;5.68;4.10;;;;;;;8.02;78.62;99107.25;4930390;29;20051;-70
2020/12/21 16:26:33;;;;;;;5.38;3.70;;;;;;;7.97;77.64;99105.53;4916786;29;20035;-69
2020/12/21 16:28:58;;;;;;;4.78;3.15;;;;;;;8.15;76.28;99096.03;4916864;29;20028;-70
2020/12/21 16:31:24;;;;;;;4.13;3.53;;;;;;;8.17;76.52;99104.59;4916884;29;20024;-69
2020/12/21 16:33:49;;;;;;;6.72;3.63;;;;;;;8.20;76.78;99095.13;4917324;29;20056;-69
2020/12/21 16:36:14;;;;;;;5.95;3.50;;;;;;;8.18;75.88;99096.03;4917476;29;20031;-70
2020/12/21 16:38:40;;;;;;;3.83;3.30;;;;;;;8.17;76.23;99087.44;4917253;29;20083;-69
2020/12/21 16:41:19;;;;;;;6.25;4.25;;;;;;;8.16;76.01;99077.94;4916837;29;20028;-70
2020/12/21 16:43:44;;;;;;;7.30;4.23;;;;;;;8.18;75.49;99076.22;4917058;29;20112;-70
2020/12/21 16:46:09;;;;;;;4.43;3.30;;;;;;;8.17;76.13;99076.22;4916932;29;20114;-70
2020/12/21 16:48:35;;;;;;;3.65;3.10;;;;;;;8.20;75.92;99073.63;4917194;29;20608;-70
2020/12/21 16:51:02;;;;;;;6.97;4.10;;;;;;;8.11;77.16;99068.50;4916798;29;20036;-70
2020/12/21 16:53:29;;;;;;;5.03;3.97;;;;;;;7.97;78.47;99082.31;4916841;29;20032;-70
2020/12/21 16:55:54;;;;;;;5.95;4.40;;;;;;;8.02;78.40;99084.00;4916571;29;20675;-69
2020/12/21 16:58:20;;;;;;;8.20;5.25;;;;;;;7.90;79.95;99079.75;4916696;29;20080;-70
2020/12/21 17:00:45;;;;;;;8.98;5.13;;;;;;;7.82;80.11;99077.19;4916536;29;20436;-70
2020/12/21 17:03:10;;;;;;;8.93;5.95;;;;;;;7.75;81.17;99070.34;4916636;29;20032;-70
2020/12/21 17:05:35;;;;;;;8.85;6.10;;;;;;;7.72;82.38;99078.06;4916542;29;20028;-69
2020/12/21 17:08:01;;;;;;;6.55;5.18;;;;;;;7.54;83.78;99076.38;4916422;29;20508;-70
2020/12/21 17:10:26;;;;;;;7.65;6.03;;;;;;;7.51;83.02;99076.38;4931156;29;20040;-69
2020/12/21 17:12:52;;;;;;;8.63;5.82;;;;;;;7.44;85.00;99074.66;4916268;29;20056;-70
2020/12/21 17:15:18;;;;;;;7.57;6.35;;;;;;;7.34;85.13;99073.81;4916617;29;20036;-69
2020/12/21 17:17:44;;;;;;;13.02;6.82;;;;;;;7.28;85.91;99073.81;4916187;29;20032;-69
2020/12/21 17:20:09;;;;;;;15.48;8.10;;;;;;;7.25;85.77;99068.66;4916485;29;20083;-69
2020/12/21 17:22:35;;;;;;;17.52;9.23;;;;;;;7.29;86.20;99070.38;4916027;29;20390;-69
2020/12/21 17:25:01;;;;;;;17.58;8.55;;;;;;;7.36;86.61;99077.25;4916200;29;20048;-69